Time;durP1;ratioP1;P1;durP2;ratioP2;P2;SDS_P1;SDS_P2;PMS_P1;PMS_P2;Temp;Humidity;BMP_temperature;BMP_pressure;BME280_temperature;BME280_humidity;BME280_pressure;Samples;Min_cycle;Max_cycle;Signal;HPM_P1;HPM_P2
2021/01/28 00:00:21;;;;;;;3.60;2.83;;;3.50;78.90;;;;;;4973312;28;20037;-85
2021/01/28 00:02:47;;;;;;;4.00;3.08;;;3.20;80.70;;;;;;5005381;28;20052;-82
2021/01/28 00:31:37;;;;;;;4.07;3.10;;;2.90;83.50;;;;;;5042029;27;20427;-67
2021/01/28 00:34:02;;;;;;;4.07;3.05;;;2.90;83.90;;;;;;5040306;28;20060;-67
2021/01/28 00:36:28;;;;;;;4.90;3.30;;;2.80;84.10;;;;;;5038958;28;20042;-67
2021/01/28 00:38:53;;;;;;;5.18;3.63;;;2.80;84.00;;;;;;5038438;28;20041;-67
2021/01/28 00:41:19;;;;;;;3.97;3.35;;;2.70;84.10;;;;;;5038522;28;20096;-66
2021/01/28 00:43:45;;;;;;;4.32;3.00;;;2.70;84.30;;;;;;5040077;28;20337;-70
2021/01/28 00:46:10;;;;;;;3.55;2.30;;;3.20;84.50;;;;;;5040282;28;20045;-66
2021/01/28 00:48:36;;;;;;;3.40;2.58;;;4.10;79.50;;;;;;5038421;28;20312;-66
2021/01/28 00:51:02;;;;;;;4.22;3.03;;;4.10;79.00;;;;;;5023561;28;20038;-65
2021/01/28 00:53:27;;;;;;;3.88;2.97;;;4.10;78.60;;;;;;5027234;28;20037;-66
2021/01/28 00:55:53;;;;;;;3.72;2.85;;;4.10;78.90;;;;;;5040137;28;20123;-66
2021/01/28 00:58:19;;;;;;;3.75;2.90;;;4.10;78.80;;;;;;5038501;28;20096;-66
2021/01/28 01:00:45;;;;;;;3.38;2.55;;;4.10;78.80;;;;;;5039789;28;20065;-66
2021/01/28 01:03:12;;;;;;;3.92;2.80;;;4.20;78.50;;;;;;5038371;28;20033;-66
2021/01/28 01:05:39;;;;;;;3.67;2.60;;;4.30;78.20;;;;;;5038000;28;20042;-66
2021/01/28 01:08:06;;;;;;;3.55;2.65;;;4.30;78.00;;;;;;5039775;28;20056;-66
2021/01/28 01:10:38;;;;;;;3.97;3.05;;;4.30;77.90;;;;;;5038399;28;20385;-66
2021/01/28 01:13:05;;;;;;;3.00;2.47;;;4.40;77.60;;;;;;5039496;28;20402;-66
2021/01/28 01:15:30;;;;;;;4.97;3.08;;;4.40;77.80;;;;;;5038188;28;20040;-66
2021/01/28 01:17:56;;;;;;;4.00;2.85;;;4.40;77.40;;;;;;5038084;28;20033;-66
2021/01/28 01:20:22;;;;;;;3.40;2.63;;;4.40;77.60;;;;;;5037910;28;20389;-66
2021/01/28 01:22:48;;;;;;;2.88;2.40;;;4.40;77.40;;;;;;5039369;28;20328;-66
2021/01/28 01:25:14;;;;;;;4.55;2.72;;;4.40;77.80;;;;;;5039604;28;20033;-66
2021/01/28 01:27:39;;;;;;;3.47;2.53;;;4.40;77.40;;;;;;5037254;28;20060;-66
2021/01/28 01:30:06;;;;;;;3.13;2.55;;;4.30;77.70;;;;;;5037588;28;20053;-66
2021/01/28 01:32:31;;;;;;;3.35;2.70;;;4.40;77.40;;;;;;5037284;28;20044;-66
2021/01/28 01:34:57;;;;;;;3.08;2.40;;;4.40;77.70;;;;;;5038899;28;20202;-66
2021/01/28 01:37:22;;;;;;;3.65;2.88;;;4.40;77.30;;;;;;5037378;28;20038;-66
2021/01/28 01:39:48;;;;;;;4.13;2.60;;;4.40;77.50;;;;;;5039253;28;20061;-66
2021/01/28 01:42:13;;;;;;;3.40;2.83;;;4.40;77.50;;;;;;5028291;28;20069;-66
2021/01/28 01:44:39;;;;;;;3.55;2.55;;;4.40;77.50;;;;;;5024320;28;20075;-66
2021/01/28 01:47:17;;;;;;;3.30;2.60;;;4.40;77.50;;;;;;5026064;28;20033;-66
2021/01/28 01:49:46;;;;;;;4.05;2.88;;;4.40;77.50;;;;;;5023085;28;20038;-66
2021/01/28 01:52:12;;;;;;;2.75;2.25;;;4.40;77.50;;;;;;5008516;28;20037;-66
2021/01/28 01:54:37;;;;;;;3.25;2.60;;;4.50;77.40;;;;;;5023949;28;20336;-66
2021/01/28 01:57:06;;;;;;;2.90;2.33;;;4.50;77.00;;;;;;5006548;28;20081;-66
2021/01/28 01:59:37;;;;;;;2.60;2.17;;;4.50;77.10;;;;;;5006297;28;20084;-66
2021/01/28 02:02:11;;;;;;;3.00;2.38;;;4.50;76.90;;;;;;5024336;28;20064;-66
2021/01/28 02:04:37;;;;;;;3.47;2.38;;;4.50;77.00;;;;;;5023835;28;20030;-66
2021/01/28 02:07:11;;;;;;;2.80;2.47;;;4.50;77.10;;;;;;5024642;28;20044;-66
2021/01/28 02:09:37;;;;;;;3.28;2.63;;;4.40;77.40;;;;;;5007039;28;20038;-66
2021/01/28 02:12:03;;;;;;;3.20;2.40;;;4.40;77.30;;;;;;5023607;28;20343;-66
2021/01/28 02:14:29;;;;;;;2.65;2.20;;;4.40;77.50;;;;;;5023520;28;20034;-66
2021/01/28 02:17:00;;;;;;;3.70;2.60;;;4.40;77.30;;;;;;5025051;28;20037;-66
2021/01/28 02:19:52;;;;;;;3.38;2.55;;;4.50;77.30;;;;;;5008089;28;20040;-62
2021/01/28 02:22:27;;;;;;;3.70;2.55;;;4.60;77.10;;;;;;5022876;28;20080;-66
2021/01/28 02:25:11;;;;;;;3.15;2.35;;;4.40;77.20;;;;;;5025135;28;20213;-66
2021/01/28 02:27:42;;;;;;;3.67;2.50;;;4.40;77.40;;;;;;5023573;28;20117;-66
2021/01/28 02:30:08;;;;;;;3.30;2.47;;;4.50;77.60;;;;;;5022024;28;20060;-66
2021/01/28 02:32:34;;;;;;;3.22;2.50;;;4.50;77.50;;;;;;5023401;28;20038;-66
2021/01/28 02:35:00;;;;;;;3.20;2.35;;;4.60;77.40;;;;;;5023702;28;20030;-66
2021/01/28 02:37:25;;;;;;;2.80;2.20;;;4.70;76.70;;;;;;5023356;28;20088;-66
2021/01/28 02:39:51;;;;;;;3.80;2.55;;;4.60;77.10;;;;;;5024533;28;20101;-66
2021/01/28 02:42:29;;;;;;;3.05;2.40;;;4.60;77.10;;;;;;5023372;28;20186;-66
2021/01/28 02:44:55;;;;;;;3.03;2.30;;;4.70;77.30;;;;;;5021656;28;20030;-66
2021/01/28 02:47:21;;;;;;;4.28;2.38;;;4.80;76.60;;;;;;5022793;28;20236;-66
2021/01/28 02:49:49;;;;;;;3.72;2.60;;;4.70;76.70;;;;;;5023049;28;20320;-66
2021/01/28 02:52:14;;;;;;;4.72;2.45;;;4.80;76.60;;;;;;5023244;28;20049;-66
2021/01/28 02:54:44;;;;;;;2.90;2.33;;;4.60;76.80;;;;;;5023472;28;20038;-66
2021/01/28 02:57:10;;;;;;;3.15;2.10;;;4.50;77.30;;;;;;5022728;28;20268;-66
2021/01/28 02:59:36;;;;;;;2.60;2.05;;;4.50;77.40;;;;;;5022756;28;20030;-66
2021/01/28 03:02:05;;;;;;;2.33;1.85;;;4.60;77.70;;;;;;5024100;28;20044;-66
2021/01/28 03:04:31;;;;;;;2.83;2.20;;;4.70;76.90;;;;;;5022960;28;20101;-66
2021/01/28 03:06:57;;;;;;;2.50;2.10;;;4.60;77.10;;;;;;5024161;28;20096;-66
2021/01/28 03:09:22;;;;;;;3.00;2.10;;;4.70;77.00;;;;;;5031518;28;20025;-66
2021/01/28 03:11:48;;;;;;;3.10;2.03;;;4.70;77.10;;;;;;5042193;28;20045;-66
2021/01/28 03:14:13;;;;;;;2.47;1.95;;;4.70;77.10;;;;;;5043868;28;20036;-66
2021/01/28 03:16:39;;;;;;;3.53;1.77;;;4.70;77.00;;;;;;5042426;28;20032;-66
2021/01/28 03:19:04;;;;;;;3.97;1.85;;;4.90;76.40;;;;;;5043967;28;20061;-66
2021/01/28 03:21:30;;;;;;;1.88;1.42;;;4.80;76.60;;;;;;5042180;28;20044;-66
2021/01/28 03:23:55;;;;;;;1.90;1.60;;;4.80;76.70;;;;;;5042331;28;20055;-66
2021/01/28 03:26:21;;;;;;;2.08;1.45;;;4.70;76.80;;;;;;5041949;28;20060;-66
2021/01/28 03:28:46;;;;;;;2.17;1.50;;;4.70;77.10;;;;;;5043572;28;20037;-66
2021/01/28 03:31:12;;;;;;;2.60;1.38;;;4.80;76.90;;;;;;5043615;28;20054;-66
2021/01/28 03:33:37;;;;;;;2.30;1.63;;;4.80;76.70;;;;;;5041952;28;20063;-66
2021/01/28 03:36:03;;;;;;;4.50;1.52;;;4.60;76.80;;;;;;5041671;28;20041;-66
2021/01/28 03:38:29;;;;;;;1.85;1.30;;;4.80;76.80;;;;;;5039429;28;20121;-66
2021/01/28 03:40:54;;;;;;;2.00;1.42;;;4.80;76.70;;;;;;5043208;28;20336;-66
2021/01/28 03:43:20;;;;;;;1.35;1.15;;;4.90;76.40;;;;;;5040955;28;20041;-66
2021/01/28 03:45:45;;;;;;;1.70;1.40;;;4.90;76.40;;;;;;5043217;28;20037;-66
2021/01/28 03:48:11;;;;;;;1.98;1.67;;;4.80;76.70;;;;;;5041815;28;20091;-66
2021/01/28 03:50:37;;;;;;;2.15;1.60;;;4.90;76.50;;;;;;5041518;28;20040;-66
2021/01/28 03:53:03;;;;;;;3.50;1.40;;;4.90;76.60;;;;;;5043268;28;20034;-66
2021/01/28 03:55:29;;;;;;;3.60;1.30;;;4.90;76.60;;;;;;5047560;28;20093;-64
2021/01/28 03:57:54;;;;;;;1.70;1.42;;;4.90;76.60;;;;;;5044036;28;20072;-63
2021/01/28 04:00:23;;;;;;;1.88;1.40;;;4.90;76.60;;;;;;5041927;28;20190;-64
2021/01/28 04:02:49;;;;;;;2.00;1.50;;;4.80;76.80;;;;;;5041511;28;20033;-63
2021/01/28 04:05:15;;;;;;;1.50;1.17;;;4.80;77.00;;;;;;5043039;28;20040;-63
2021/01/28 04:07:41;;;;;;;1.52;1.30;;;4.90;77.20;;;;;;5040196;28;20038;-63
2021/01/28 04:10:08;;;;;;;1.92;1.30;;;4.90;76.40;;;;;;5043270;28;20105;-63
2021/01/28 04:12:34;;;;;;;2.17;1.30;;;4.80;76.80;;;;;;5041606;28;20041;-63
2021/01/28 04:14:59;;;;;;;3.45;1.30;;;4.80;76.90;;;;;;5041326;28;20036;-63
2021/01/28 04:17:25;;;;;;;1.83;1.25;;;4.80;76.80;;;;;;5041180;28;20037;-63
2021/01/28 04:19:50;;;;;;;3.03;1.23;;;4.90;76.90;;;;;;5042861;28;20029;-63
2021/01/28 04:22:16;;;;;;;2.28;1.30;;;4.90;76.60;;;;;;5041053;28;20236;-63
2021/01/28 04:24:42;;;;;;;2.47;1.20;;;4.90;76.60;;;;;;5042741;28;20037;-63
2021/01/28 04:27:08;;;;;;;2.38;1.20;;;4.90;76.60;;;;;;5041768;28;20198;-62
2021/01/28 04:29:34;;;;;;;1.60;1.20;;;4.90;76.70;;;;;;5040985;28;20049;-63
2021/01/28 04:31:59;;;;;;;2.60;1.40;;;4.90;77.20;;;;;;5042547;28;20350;-63
2021/01/28 04:34:25;;;;;;;4.35;1.30;;;4.90;76.50;;;;;;5041195;28;20048;-63
2021/01/28 04:36:50;;;;;;;1.63;1.27;;;5.00;76.40;;;;;;5042668;28;20324;-63
2021/01/28 04:39:17;;;;;;;1.75;1.20;;;4.90;76.50;;;;;;5041061;28;20080;-63
2021/01/28 04:41:42;;;;;;;2.38;1.40;;;5.00;76.30;;;;;;5040658;28;20034;-63
2021/01/28 04:44:08;;;;;;;4.63;1.50;;;4.90;76.60;;;;;;5042445;28;20025;-63
2021/01/28 04:46:37;;;;;;;2.67;1.30;;;4.90;77.20;;;;;;5040098;28;20108;-63
2021/01/28 04:49:06;;;;;;;1.80;1.30;;;4.90;77.20;;;;;;5042679;28;20044;-63
2021/01/28 04:51:32;;;;;;;2.67;1.50;;;4.90;77.00;;;;;;5023352;28;20271;-63
2021/01/28 04:54:01;;;;;;;3.80;1.40;;;4.90;77.60;;;;;;5022827;28;20096;-63
2021/01/28 04:56:27;;;;;;;3.60;1.50;;;5.00;77.30;;;;;;5039708;28;20064;-64
2021/01/28 04:59:22;;;;;;;2.15;1.35;;;4.90;77.10;;;;;;5042233;28;20080;-63
2021/01/28 05:01:47;;;;;;;2.20;1.58;;;4.90;77.70;;;;;;5036881;28;20033;-63
2021/01/28 05:04:15;;;;;;;2.50;1.27;;;4.90;77.40;;;;;;5042502;28;20045;-63
2021/01/28 05:06:40;;;;;;;2.13;1.23;;;4.90;77.60;;;;;;5040042;28;20030;-63
2021/01/28 05:09:06;;;;;;;2.90;1.50;;;5.00;77.60;;;;;;5040896;28;20037;-63
2021/01/28 05:11:33;;;;;;;3.20;1.55;;;4.90;77.70;;;;;;5039491;28;20053;-64
2021/01/28 05:14:17;;;;;;;4.68;1.50;;;4.90;77.70;;;;;;5041207;28;20038;-64
2021/01/28 05:16:45;;;;;;;2.15;1.50;;;5.00;77.90;;;;;;5041908;28;20025;-63
2021/01/28 05:19:26;;;;;;;4.40;1.52;;;5.10;77.50;;;;;;5045923;28;20048;-64
2021/01/28 05:21:52;;;;;;;1.85;1.13;;;5.00;77.50;;;;;;5043607;28;20033;-64
2021/01/28 05:24:31;;;;;;;2.25;1.30;;;5.00;77.80;;;;;;5043107;28;20286;-64
2021/01/28 05:27:28;;;;;;;2.92;1.20;;;4.90;78.00;;;;;;5043279;28;20038;-64
2021/01/28 05:29:58;;;;;;;1.70;1.10;;;4.90;78.40;;;;;;5043719;28;20347;-65
2021/01/28 05:32:44;;;;;;;2.53;1.20;;;5.00;78.60;;;;;;5044047;28;20080;-66
2021/01/28 05:35:22;;;;;;;1.75;1.02;;;5.00;78.00;;;;;;5044601;28;20029;-65
2021/01/28 05:37:47;;;;;;;1.77;1.02;;;4.90;78.30;;;;;;5045097;28;20097;-66
2021/01/28 05:40:23;;;;;;;2.92;1.20;;;4.90;78.40;;;;;;5045534;28;20279;-66
2021/01/28 05:42:51;;;;;;;3.13;1.20;;;4.90;78.50;;;;;;5044645;28;20037;-66
2021/01/28 05:45:23;;;;;;;2.85;1.20;;;4.90;78.90;;;;;;5043953;28;20041;-65
2021/01/28 05:47:48;;;;;;;4.97;1.25;;;4.80;78.80;;;;;;5044076;28;20332;-66
2021/01/28 05:50:34;;;;;;;1.65;1.27;;;4.90;78.60;;;;;;5045430;28;20061;-65
2021/01/28 05:53:14;;;;;;;1.75;1.23;;;4.90;78.60;;;;;;5044202;28;20036;-66
2021/01/28 05:55:40;;;;;;;3.75;1.48;;;5.00;78.80;;;;;;5044160;28;20371;-66
2021/01/28 05:58:06;;;;;;;3.88;1.10;;;5.00;78.50;;;;;;5045117;28;20209;-66
2021/01/28 06:00:57;;;;;;;5.75;1.20;;;5.10;78.10;;;;;;5042402;28;20026;-66
2021/01/28 06:03:28;;;;;;;7.03;3.35;;;5.10;78.00;;;;;;5042723;28;20033;-66
2021/01/28 06:05:59;;;;;;;;;;;5.00;78.40;;;;;;5043873;28;20026;-66
2021/01/28 06:08:39;;;;;;;2.40;1.25;;;4.90;78.40;;;;;;5043309;28;19909;-66
2021/01/28 06:11:14;;;;;;;4.32;1.30;;;5.10;78.50;;;;;;5043780;28;20033;-66
2021/01/28 06:13:42;;;;;;;4.22;1.40;;;5.20;78.00;;;;;;5043353;28;20033;-66
2021/01/28 06:16:13;;;;;;;3.05;1.30;;;5.20;77.80;;;;;;5043718;28;20060;-66
2021/01/28 06:18:58;;;;;;;4.20;1.40;;;5.20;77.70;;;;;;5043098;28;20041;-66
2021/01/28 06:21:58;;;;;;;4.07;1.58;;;5.00;78.10;;;;;;5043126;28;20056;-66
2021/01/28 06:24:46;;;;;;;3.42;1.60;;;4.90;78.20;;;;;;5025123;28;20033;-66
2021/01/28 06:27:22;;;;;;;7.82;1.63;;;4.90;78.70;;;;;;5041831;28;20033;-66
2021/01/28 06:30:01;;;;;;;6.05;1.50;;;4.90;79.00;;;;;;5041490;28;20057;-66
2021/01/28 06:33:14;;;;;;;3.85;1.55;;;4.90;78.90;;;;;;5041964;28;20037;-66
2021/01/28 06:35:55;;;;;;;5.68;1.60;;;4.80;79.00;;;;;;5038137;28;20216;-66
2021/01/28 06:38:40;;;;;;;2.53;1.70;;;4.80;79.00;;;;;;5042751;28;20105;-66
2021/01/28 06:41:11;;;;;;;6.93;2.40;;;4.80;78.80;;;;;;5044416;28;20039;-66
2021/01/28 06:43:42;;;;;;;5.75;2.00;;;4.80;78.90;;;;;;5041902;28;20331;-66
2021/01/28 06:46:26;;;;;;;;;;;4.70;78.30;;;;;;5043916;28;20224;-66
2021/01/28 06:48:52;;;;;;;6.93;2.28;;;4.70;78.60;;;;;;5043177;28;20182;-66
2021/01/28 06:51:31;;;;;;;6.60;2.13;;;4.60;78.80;;;;;;5041709;28;20044;-66
2021/01/28 06:54:06;;;;;;;6.53;2.30;;;4.60;78.80;;;;;;5041493;28;20044;-66
2021/01/28 06:56:48;;;;;;;6.53;1.92;;;4.60;78.80;;;;;;5041818;28;20048;-65
2021/01/28 06:59:20;;;;;;;6.60;1.90;;;4.60;78.60;;;;;;5043114;28;20030;-66
2021/01/28 07:02:04;;;;;;;6.10;2.50;;;4.60;79.10;;;;;;5038003;28;20025;-66
2021/01/28 07:04:46;;;;;;;5.60;2.30;;;4.60;78.70;;;;;;5041894;28;20209;-67
2021/01/28 07:07:14;;;;;;;;;;;4.60;78.80;;;;;;5043218;28;20048;-67
2021/01/28 07:10:02;;;;;;;7.70;2.42;;;4.80;78.40;;;;;;5042822;28;19909;-67
2021/01/28 07:12:36;;;;;;;6.40;2.08;;;4.60;78.60;;;;;;5041563;28;20040;-63
2021/01/28 07:15:02;;;;;;;7.47;2.58;;;4.60;79.30;;;;;;5041169;28;20049;-63
2021/01/28 07:17:38;;;;;;;10.02;2.50;;;4.60;79.50;;;;;;5042127;28;20036;-63
2021/01/28 07:20:06;;;;;;;6.22;2.30;;;4.50;79.50;;;;;;5044006;28;20349;-63
2021/01/28 07:22:36;;;;;;;6.80;2.50;;;4.50;79.40;;;;;;5042468;28;20041;-63
2021/01/28 07:25:20;;;;;;;7.20;2.65;;;4.40;79.60;;;;;;5042791;28;20041;-61
2021/01/28 07:28:18;;;;;;;8.80;2.80;;;4.40;80.20;;;;;;5042860;28;20033;-60
2021/01/28 07:30:51;;;;;;;7.07;2.65;;;4.40;80.50;;;;;;5034806;28;20042;-64
2021/01/28 07:33:22;;;;;;;13.15;3.40;;;4.40;80.40;;;;;;5042027;28;20026;-63
2021/01/28 07:35:49;;;;;;;;;;;4.40;80.60;;;;;;5042640;28;20193;-63
2021/01/28 07:38:26;;;;;;;8.77;2.75;;;4.30;80.70;;;;;;5042198;28;19905;-63
2021/01/28 07:41:08;;;;;;;5.55;2.58;;;4.30;81.10;;;;;;5042006;28;20080;-63
2021/01/28 07:43:39;;;;;;;12.73;3.60;;;4.40;81.10;;;;;;5040483;28;20042;-63
2021/01/28 07:46:32;;;;;;;9.18;2.58;;;4.40;81.10;;;;;;5042041;28;20246;-63
2021/01/28 07:49:04;;;;;;;10.73;2.35;;;4.40;81.00;;;;;;5041872;28;20033;-61
2021/01/28 07:51:37;;;;;;;6.80;2.83;;;4.40;80.90;;;;;;5041514;28;20049;-59
2021/01/28 07:54:04;;;;;;;11.20;3.90;;;4.40;81.10;;;;;;5041476;28;20037;-60
2021/01/28 07:56:35;;;;;;;8.38;2.40;;;4.40;81.10;;;;;;5040564;28;20057;-60
2021/01/28 07:59:11;;;;;;;7.43;2.60;;;4.40;81.20;;;;;;5042875;28;20033;-59
2021/01/28 08:01:39;;;;;;;14.85;2.50;;;4.40;81.40;;;;;;5040368;28;20033;-62
2021/01/28 08:04:29;;;;;;;8.90;3.55;;;4.40;81.20;;;;;;5041716;28;20202;-61
2021/01/28 08:06:55;;;;;;;7.50;2.20;;;4.50;81.00;;;;;;5041578;28;20089;-62
2021/01/28 08:09:21;;;;;;;8.98;4.30;;;4.50;81.00;;;;;;5039785;28;20079;-62
2021/01/28 08:11:51;;;;;;;9.27;3.58;;;4.60;80.80;;;;;;5040802;28;20034;-63
2021/01/28 08:14:20;;;;;;;8.25;2.70;;;4.60;80.60;;;;;;5041222;28;20037;-62
2021/01/28 08:16:50;;;;;;;6.53;3.03;;;4.60;80.80;;;;;;5040002;28;20029;-61
2021/01/28 08:19:25;;;;;;;17.75;3.03;;;4.60;80.40;;;;;;5040358;28;20190;-63
2021/01/28 08:22:09;;;;;;;14.50;3.13;;;4.60;80.50;;;;;;5042600;28;20040;-62
2021/01/28 08:24:35;;;;;;;13.93;3.17;;;4.60;80.80;;;;;;5041417;28;20038;-61
2021/01/28 08:27:31;;;;;;;21.63;4.07;;;4.60;81.00;;;;;;5040767;28;20212;-63
2021/01/28 08:30:25;;;;;;;16.88;4.03;;;4.50;80.90;;;;;;5035444;28;20158;-59
2021/01/28 08:32:57;;;;;;;13.65;2.90;;;4.50;80.90;;;;;;5040223;28;20025;-60
2021/01/28 08:35:26;;;;;;;9.30;2.45;;;4.40;81.10;;;;;;5041120;28;20029;-60
2021/01/28 08:38:16;;;;;;;11.13;3.15;;;4.50;81.00;;;;;;5041344;28;20105;-61
2021/01/28 08:40:42;;;;;;;8.13;3.03;;;4.60;80.90;;;;;;5041392;28;20029;-60
2021/01/28 08:43:14;;;;;;;7.88;2.97;;;4.40;81.40;;;;;;5041283;28;20040;-64
2021/01/28 08:45:41;;;;;;;9.48;2.63;;;4.50;81.40;;;;;;5041615;28;20033;-65
2021/01/28 08:48:10;;;;;;;8.13;2.30;;;4.60;81.40;;;;;;5040990;28;20021;-64
2021/01/28 08:50:36;;;;;;;9.02;2.65;;;4.70;81.50;;;;;;5040967;28;20040;-63
2021/01/28 08:53:05;;;;;;;7.97;3.00;;;4.70;81.00;;;;;;5045902;28;20269;-65
2021/01/28 08:55:34;;;;;;;6.43;2.55;;;4.60;81.10;;;;;;5044082;28;20029;-65
2021/01/28 08:58:06;;;;;;;6.60;2.53;;;4.70;81.40;;;;;;5046670;28;20221;-62
2021/01/28 09:00:32;;;;;;;8.75;2.40;;;4.70;81.30;;;;;;5043707;28;20049;-63
2021/01/28 09:02:57;;;;;;;7.70;2.40;;;4.80;81.50;;;;;;5043653;28;20041;-62
2021/01/28 09:05:27;;;;;;;4.65;2.30;;;4.80;81.30;;;;;;5044702;28;20060;-63
2021/01/28 09:07:57;;;;;;;6.60;1.98;;;4.80;81.10;;;;;;5045124;28;20033;-62
2021/01/28 09:10:41;;;;;;;6.03;2.08;;;4.80;81.10;;;;;;5044676;28;20043;-63
2021/01/28 09:13:21;;;;;;;5.70;2.10;;;4.80;81.20;;;;;;5045314;28;20279;-63
2021/01/28 09:15:48;;;;;;;6.07;2.17;;;4.80;81.40;;;;;;5045315;28;20048;-64
2021/01/28 09:18:22;;;;;;;4.68;2.20;;;4.80;81.40;;;;;;5044726;28;20100;-63
2021/01/28 09:20:47;;;;;;;3.72;1.80;;;4.80;81.40;;;;;;5043398;28;20216;-61
2021/01/28 09:23:15;;;;;;;4.00;1.80;;;4.90;81.50;;;;;;5045695;28;20030;-60
2021/01/28 09:25:41;;;;;;;9.60;2.28;;;4.90;81.20;;;;;;5043241;28;20033;-61
2021/01/28 09:28:11;;;;;;;7.00;1.80;;;4.90;81.10;;;;;;5045673;28;20379;-62
2021/01/28 09:30:39;;;;;;;9.38;1.80;;;4.90;81.10;;;;;;5044182;28;20069;-61
2021/01/28 09:33:23;;;;;;;6.50;1.50;;;4.90;81.10;;;;;;5044117;28;20098;-61
2021/01/28 09:36:04;;;;;;;3.25;1.70;;;4.90;81.00;;;;;;5044073;28;20048;-62
2021/01/28 09:38:30;;;;;;;;;;;4.90;81.60;;;;;;5044411;28;20350;-61
2021/01/28 09:41:17;;;;;;;5.38;1.52;;;4.90;81.60;;;;;;5045860;28;19905;-60
2021/01/28 09:43:43;;;;;;;4.53;1.20;;;4.90;81.60;;;;;;5042660;28;20289;-60
2021/01/28 09:46:11;;;;;;;5.57;1.63;;;4.90;81.60;;;;;;5044524;28;20072;-60
2021/01/28 09:48:38;;;;;;;7.28;1.73;;;4.90;81.70;;;;;;5043791;28;20040;-60
2021/01/28 09:51:04;;;;;;;5.93;2.72;;;5.00;81.60;;;;;;5043821;28;20083;-60
2021/01/28 09:53:30;;;;;;;4.05;1.50;;;5.00;82.20;;;;;;5042689;28;20046;-59
2021/01/28 09:55:56;;;;;;;3.97;1.10;;;5.10;82.10;;;;;;5045168;28;20033;-60
2021/01/28 09:58:22;;;;;;;2.00;1.10;;;5.00;82.20;;;;;;5042999;28;20041;-60
2021/01/28 10:00:47;;;;;;;3.22;1.10;;;5.00;82.60;;;;;;5045672;28;20033;-60
2021/01/28 10:03:13;;;;;;;3.13;1.08;;;5.00;82.70;;;;;;5043115;28;20101;-60
2021/01/28 10:05:39;;;;;;;2.85;1.20;;;5.00;83.10;;;;;;5042402;28;20108;-62
2021/01/28 10:08:04;;;;;;;1.98;1.10;;;5.10;83.10;;;;;;5045127;28;20048;-62
2021/01/28 10:10:31;;;;;;;2.38;1.05;;;5.10;82.70;;;;;;5043916;28;20340;-58
2021/01/28 10:12:59;;;;;;;3.00;1.20;;;5.10;82.60;;;;;;5043714;28;20041;-59
2021/01/28 10:15:24;;;;;;;4.65;0.98;;;5.10;82.90;;;;;;5042413;28;20041;-60
2021/01/28 10:17:51;;;;;;;1.85;1.40;;;5.20;82.90;;;;;;5043318;28;20036;-59
2021/01/28 10:20:17;;;;;;;2.38;0.85;;;5.20;82.70;;;;;;5044773;28;20041;-60
2021/01/28 10:22:42;;;;;;;2.10;1.10;;;5.30;82.50;;;;;;5043632;28;20056;-59
2021/01/28 10:25:09;;;;;;;3.75;0.93;;;5.30;82.50;;;;;;5043489;28;20041;-59
2021/01/28 10:27:35;;;;;;;1.98;1.00;;;5.30;83.00;;;;;;5043134;28;20100;-59
2021/01/28 10:30:00;;;;;;;3.35;1.00;;;5.30;82.50;;;;;;5041593;28;20052;-59
2021/01/28 10:32:26;;;;;;;2.28;0.90;;;5.30;82.70;;;;;;5043153;28;20368;-60
2021/01/28 10:34:51;;;;;;;1.95;0.88;;;5.30;83.00;;;;;;5044422;28;20036;-60
2021/01/28 10:37:17;;;;;;;2.92;1.20;;;5.30;82.80;;;;;;5042969;28;20056;-60
2021/01/28 10:39:44;;;;;;;6.47;1.15;;;5.30;82.70;;;;;;5044748;28;20034;-59
2021/01/28 10:42:14;;;;;;;1.83;0.90;;;5.40;82.70;;;;;;5042954;28;20033;-59
2021/01/28 10:44:39;;;;;;;6.93;1.25;;;5.30;82.70;;;;;;5041831;28;20339;-59
2021/01/28 10:47:05;;;;;;;3.72;0.88;;;5.30;82.80;;;;;;5043575;28;20049;-59
2021/01/28 10:49:31;;;;;;;1.45;0.88;;;5.40;82.70;;;;;;5043059;28;20029;-59
2021/01/28 10:51:56;;;;;;;2.40;1.02;;;5.40;82.70;;;;;;5044470;28;20026;-59
2021/01/28 10:54:22;;;;;;;1.92;0.85;;;5.40;82.90;;;;;;5042523;28;20346;-60
2021/01/28 10:56:47;;;;;;;2.53;0.90;;;5.40;83.90;;;;;;5042637;28;20034;-58
2021/01/28 10:59:13;;;;;;;3.78;0.90;;;5.50;83.60;;;;;;5042685;28;20056;-59
2021/01/28 11:01:38;;;;;;;1.90;1.00;;;5.40;84.00;;;;;;5042750;28;20324;-59
2021/01/28 11:04:04;;;;;;;4.22;0.95;;;5.30;83.70;;;;;;5044653;28;20021;-60
2021/01/28 11:06:29;;;;;;;3.45;1.00;;;5.40;84.60;;;;;;5044234;28;20044;-59
2021/01/28 11:08:55;;;;;;;3.00;0.88;;;5.40;84.20;;;;;;5043588;28;20044;-60
2021/01/28 11:11:20;;;;;;;2.38;0.90;;;5.40;84.00;;;;;;5043585;28;20048;-59
2021/01/28 11:13:47;;;;;;;4.10;1.33;;;5.50;84.70;;;;;;5043297;28;20292;-60
2021/01/28 11:16:13;;;;;;;4.72;1.20;;;5.50;84.50;;;;;;5044907;28;20144;-60
2021/01/28 11:18:38;;;;;;;2.53;1.17;;;5.50;84.30;;;;;;5044095;28;20324;-59
2021/01/28 11:21:04;;;;;;;2.38;0.90;;;5.40;84.60;;;;;;5043880;28;20052;-60
2021/01/28 11:23:30;;;;;;;1.27;0.80;;;5.50;84.70;;;;;;5043568;28;20034;-60
2021/01/28 11:25:55;;;;;;;1.50;0.88;;;5.50;84.60;;;;;;5043389;28;20029;-60
2021/01/28 11:28:21;;;;;;;2.30;1.02;;;5.50;84.60;;;;;;5043342;28;20045;-59
2021/01/28 11:30:47;;;;;;;4.18;1.00;;;5.50;84.00;;;;;;5044713;28;20057;-59
2021/01/28 11:33:12;;;;;;;3.58;1.00;;;5.40;84.10;;;;;;5042517;28;20037;-59
2021/01/28 11:35:38;;;;;;;2.47;1.00;;;5.50;84.10;;;;;;5043503;28;20037;-59
2021/01/28 11:38:05;;;;;;;3.10;1.00;;;5.50;83.80;;;;;;5043412;28;20056;-59
2021/01/28 11:40:31;;;;;;;2.60;0.90;;;5.50;83.80;;;;;;5043054;28;20056;-59
2021/01/28 11:42:56;;;;;;;1.75;0.80;;;5.50;83.80;;;;;;5044998;28;20033;-59
2021/01/28 11:45:25;;;;;;;2.28;0.95;;;5.50;84.10;;;;;;5043296;28;20206;-59
2021/01/28 11:47:50;;;;;;;3.17;1.00;;;5.50;84.00;;;;;;5043167;28;20037;-59
2021/01/28 11:50:17;;;;;;;2.03;1.00;;;5.50;83.80;;;;;;5043177;28;20281;-59
2021/01/28 11:52:43;;;;;;;1.85;0.93;;;5.50;84.30;;;;;;5043134;28;20052;-60
2021/01/28 11:55:10;;;;;;;2.28;0.98;;;5.50;84.10;;;;;;5044704;28;20050;-60
2021/01/28 11:57:35;;;;;;;2.88;0.80;;;5.50;84.10;;;;;;5043139;28;20033;-60
2021/01/28 12:00:01;;;;;;;1.92;0.90;;;5.50;84.40;;;;;;5043143;28;20044;-62
2021/01/28 12:02:27;;;;;;;1.30;0.90;;;5.60;85.00;;;;;;5043003;28;20275;-61
2021/01/28 12:04:52;;;;;;;1.58;0.85;;;5.50;84.90;;;;;;5042907;28;20038;-62
2021/01/28 12:07:18;;;;;;;1.13;0.80;;;5.60;85.00;;;;;;5043288;28;20034;-62
2021/01/28 12:09:44;;;;;;;1.80;0.80;;;5.50;85.00;;;;;;5044916;28;20051;-62
2021/01/28 12:12:10;;;;;;;2.58;0.90;;;5.50;85.10;;;;;;5042987;28;20097;-62
2021/01/28 12:14:35;;;;;;;1.85;1.00;;;5.50;86.00;;;;;;5042849;28;20076;-59
2021/01/28 12:17:01;;;;;;;1.30;0.80;;;5.60;86.10;;;;;;5042557;28;20034;-60
2021/01/28 12:19:26;;;;;;;2.47;0.85;;;5.60;86.10;;;;;;5042537;28;20029;-60
2021/01/28 12:21:52;;;;;;;2.10;0.68;;;5.60;85.80;;;;;;5044389;28;20029;-61
2021/01/28 12:24:17;;;;;;;1.33;0.80;;;5.60;85.90;;;;;;5042962;28;20388;-60
2021/01/28 12:26:43;;;;;;;2.13;0.70;;;5.70;86.70;;;;;;5042641;28;20068;-61
2021/01/28 12:29:08;;;;;;;2.42;0.90;;;5.70;86.80;;;;;;5042752;28;20033;-61
2021/01/28 12:31:34;;;;;;;1.20;0.80;;;5.70;86.50;;;;;;5042159;28;20053;-60
2021/01/28 12:34:00;;;;;;;1.20;0.70;;;5.80;86.60;;;;;;5044435;28;20036;-61
2021/01/28 12:36:25;;;;;;;1.70;0.63;;;5.90;87.00;;;;;;5042876;28;20037;-61
2021/01/28 12:38:51;;;;;;;0.52;0.40;;;5.90;87.30;;;;;;5042744;28;20048;-61
2021/01/28 12:41:16;;;;;;;1.25;0.55;;;5.90;87.20;;;;;;5042434;28;20033;-60
2021/01/28 12:43:42;;;;;;;1.08;0.60;;;5.90;86.90;;;;;;5042132;28;20256;-61
2021/01/28 12:46:07;;;;;;;1.30;0.75;;;6.00;87.10;;;;;;5044200;28;20088;-62
2021/01/28 12:48:33;;;;;;;1.35;0.75;;;6.00;87.00;;;;;;5042771;28;20224;-61
2021/01/28 12:50:58;;;;;;;1.98;0.77;;;6.00;86.80;;;;;;5042500;28;20041;-61
2021/01/28 12:53:24;;;;;;;1.42;0.60;;;6.10;86.90;;;;;;5042384;28;20098;-60
2021/01/28 12:55:49;;;;;;;1.05;0.57;;;6.20;86.90;;;;;;5042439;28;20036;-61
2021/01/28 12:58:16;;;;;;;1.05;0.57;;;6.10;86.70;;;;;;5042171;28;20036;-61
2021/01/28 13:00:42;;;;;;;2.38;0.60;;;6.20;86.70;;;;;;5044114;28;20044;-61
2021/01/28 13:03:07;;;;;;;1.52;0.50;;;6.20;86.90;;;;;;5042468;28;20042;-61
2021/01/28 13:05:33;;;;;;;1.23;0.63;;;6.20;86.80;;;;;;5042336;28;20044;-60
2021/01/28 13:07:58;;;;;;;2.72;0.50;;;6.30;86.60;;;;;;5042270;28;20132;-61
2021/01/28 13:10:24;;;;;;;1.90;0.70;;;6.30;86.80;;;;;;5042519;28;20033;-61
2021/01/28 13:12:50;;;;;;;1.52;0.50;;;6.20;86.90;;;;;;5043683;28;20017;-61
2021/01/28 13:15:17;;;;;;;2.35;0.60;;;6.20;87.30;;;;;;5042428;28;20030;-60
2021/01/28 13:17:44;;;;;;;1.27;0.40;;;6.30;87.20;;;;;;5041918;28;20038;-60
2021/01/28 13:20:10;;;;;;;2.67;0.45;;;6.30;87.20;;;;;;5040926;28;20236;-61
2021/01/28 13:22:36;;;;;;;3.78;0.52;;;6.40;87.10;;;;;;5041886;28;20064;-61
2021/01/28 13:25:02;;;;;;;0.90;0.40;;;6.50;86.90;;;;;;5044040;28;20040;-61
2021/01/28 13:27:27;;;;;;;2.38;0.45;;;6.50;86.40;;;;;;5042412;28;20061;-61
2021/01/28 13:29:53;;;;;;;1.13;0.50;;;6.60;86.30;;;;;;5041871;28;20087;-61
2021/01/28 13:32:18;;;;;;;1.98;0.40;;;6.60;86.10;;;;;;5042059;28;20030;-61
2021/01/28 13:34:44;;;;;;;0.50;0.40;;;6.70;86.00;;;;;;5042262;28;20026;-61